createdAt,value
2022-10-18T00:00:56.153Z,102930.34
2022-10-18T00:05:52.903Z,102927.94
2022-10-18T00:10:52.797Z,102918.34
2022-10-18T00:15:50.618Z,102922.16
2022-10-18T00:20:56.149Z,102924.69
2022-10-18T00:25:58.662Z,102912.19
2022-10-18T00:30:55.789Z,102898.09
2022-10-18T00:35:52.346Z,102912.03
2022-10-18T00:40:48.865Z,102904.84
2022-10-18T00:45:45.614Z,102904.84
2022-10-18T00:50:43.334Z,102902.34
2022-10-18T00:55:39.948Z,102898.25
2022-10-18T01:00:38.903Z,102897.09
2022-10-18T01:05:37.543Z,102890.53
2022-10-18T01:10:39.195Z,102871.41
2022-10-18T01:15:42.589Z,102887.25
2022-10-18T01:20:55.135Z,102889.94
2022-10-18T01:25:56.880Z,102876.75
2022-10-18T01:30:57.020Z,102874.34
2022-10-18T01:35:56.631Z,102868.53
2022-10-18T01:40:55.006Z,102874.56
2022-10-18T01:45:54.523Z,102872.59
2022-10-18T01:50:53.629Z,102863.72
2022-10-18T01:55:55.364Z,102859.16
2022-10-18T02:00:58.119Z,102853.00
2022-10-18T02:05:58.557Z,102843.06
2022-10-18T02:10:58.743Z,102847.22
2022-10-18T02:15:58.445Z,102846.22
2022-10-18T02:20:55.799Z,102849.69
2022-10-18T02:25:54.051Z,102851.44
2022-10-18T02:30:52.953Z,102850.56
2022-10-18T02:35:51.967Z,102833.28
2022-10-18T02:40:48.760Z,102847.88
2022-10-18T02:45:46.139Z,102848.53
2022-10-18T02:50:42.907Z,102851.38
2022-10-18T02:55:39.606Z,102866.50
2022-10-18T03:00:36.546Z,102857.22
2022-10-18T03:05:34.022Z,102844.47
2022-10-18T03:10:30.645Z,102862.63
2022-10-18T03:15:27.184Z,102854.69
2022-10-18T03:20:23.986Z,102857.53
2022-10-18T03:25:21.516Z,102861.59
2022-10-18T03:30:18.170Z,102860.22
2022-10-18T03:35:15.173Z,102859.41
2022-10-18T03:40:11.836Z,102855.78
2022-10-18T03:45:09.829Z,102852.00
2022-10-18T03:50:07.619Z,102850.00
2022-10-18T03:55:04.456Z,102845.28
2022-10-18T04:00:01.005Z,102842.31
2022-10-18T04:05:04.470Z,102835.03
2022-10-18T04:10:01.316Z,102843.91
2022-10-18T04:14:57.942Z,102831.59
2022-10-18T04:19:54.694Z,102837.00
2022-10-18T04:24:52.735Z,102825.88
2022-10-18T04:29:50.614Z,102823.22
2022-10-18T04:34:47.304Z,102830.34
2022-10-18T04:39:49.953Z,102831.66
2022-10-18T04:44:50.602Z,102843.38
2022-10-18T04:49:47.236Z,102839.22
2022-10-18T04:54:43.874Z,102847.41
2022-10-18T04:59:40.530Z,102843.72
2022-10-18T05:04:37.909Z,102843.72
2022-10-18T05:09:34.788Z,102844.38
2022-10-18T05:14:31.412Z,102841.66
2022-10-18T05:19:31.144Z,102849.97
2022-10-18T05:24:28.565Z,102847.34
2022-10-18T05:29:25.617Z,102839.44
2022-10-18T05:34:22.552Z,102845.69
2022-10-18T05:39:19.207Z,102851.81
2022-10-18T05:44:17.009Z,102854.44
2022-10-18T05:49:14.039Z,102864.06
2022-10-18T05:54:11.725Z,102871.06
2022-10-18T05:59:11.470Z,102874.50
2022-10-18T06:04:09.867Z,102878.81
2022-10-18T06:09:07.338Z,102877.78
2022-10-18T06:14:08.102Z,102885.44
2022-10-18T06:19:08.463Z,102870.56
2022-10-18T06:24:08.442Z,102884.03
2022-10-18T06:29:05.481Z,102878.84
2022-10-18T06:34:04.528Z,102878.84
2022-10-18T06:39:25.549Z,102878.91
2022-10-18T06:44:26.834Z,102868.41
2022-10-18T06:55:58.051Z,102874.53
2022-10-18T07:01:30.348Z,102873.69
2022-10-18T07:06:47.912Z,102872.81
2022-10-18T07:12:53.431Z,102880.66
2022-10-18T07:19:18.980Z,102863.91
2022-10-18T07:48:59.492Z,102861.75
2022-10-18T07:53:57.925Z,102845.84
2022-10-18T07:59:24.979Z,102842.03
2022-10-18T08:04:52.773Z,102843.50
2022-10-18T08:09:52.813Z,102836.94
2022-10-18T08:14:51.882Z,102837.75
2022-10-18T08:19:58.535Z,102829.84
2022-10-18T08:25:06.989Z,102816.03
2022-10-18T08:35:56.405Z,102806.13
2022-10-18T08:40:53.931Z,102796.66
2022-10-18T08:45:51.196Z,102799.84
2022-10-18T08:50:50.919Z,102796.75
2022-10-18T08:55:51.842Z,102794.75
2022-10-18T09:00:55.894Z,102783.72
2022-10-18T09:05:54.820Z,102775.59
2022-10-18T09:10:59.568Z,102772.63
2022-10-18T09:16:00.631Z,102760.69
2022-10-18T09:21:01.004Z,102755.88
2022-10-18T09:26:04.076Z,102744.91
2022-10-18T09:31:08.474Z,102741.94
2022-10-18T09:36:07.186Z,102730.22
2022-10-18T09:41:08.834Z,102719.28
2022-10-18T09:46:07.213Z,102715.34
2022-10-18T09:51:10.803Z,102709.94
2022-10-18T09:56:10.185Z,102702.56
2022-10-18T10:01:11.443Z,102692.69
2022-10-18T10:06:17.211Z,102680.81
2022-10-18T10:11:26.525Z,102677.03
2022-10-18T10:16:25.199Z,102660.03
2022-10-18T10:21:25.056Z,102652.84
2022-10-18T10:26:27.490Z,102646.22
2022-10-18T10:31:29.765Z,102638.28
2022-10-18T10:36:26.662Z,102628.94
2022-10-18T10:41:24.152Z,102620.41
2022-10-18T10:46:22.721Z,102610.91
2022-10-18T10:51:31.857Z,102610.25
2022-10-18T10:56:30.426Z,102597.09
2022-10-18T11:01:30.474Z,102580.25
2022-10-18T11:06:51.324Z,102579.09
2022-10-18T11:11:53.092Z,102561.22
2022-10-18T11:16:54.975Z,102554.69
2022-10-18T11:21:52.816Z,102545.00
2022-10-18T11:26:53.975Z,102531.09
2022-10-18T11:31:56.098Z,102530.72
2022-10-18T11:37:26.342Z,102516.03
2022-10-18T11:42:26.889Z,102514.47
2022-10-18T11:47:35.155Z,102491.53
2022-10-18T11:52:39.837Z,102487.47
2022-10-18T11:57:40.977Z,102474.06
2022-10-18T12:02:57.628Z,102468.75
2022-10-18T12:07:58.404Z,102440.56
2022-10-18T12:12:58.112Z,102460.78
2022-10-18T12:17:55.963Z,102450.22
2022-10-18T12:22:56.121Z,102450.44
2022-10-18T12:27:56.288Z,102452.75
2022-10-18T12:33:03.689Z,102424.84
2022-10-18T12:38:19.979Z,102430.81
2022-10-18T12:43:18.345Z,102423.84
2022-10-18T12:48:27.534Z,102418.75
2022-10-18T12:53:28.160Z,102404.88
2022-10-18T12:58:26.827Z,102404.84
2022-10-18T13:03:46.894Z,102393.75
2022-10-18T13:08:46.741Z,102385.75
2022-10-18T13:13:55.821Z,102387.19
2022-10-18T13:18:54.055Z,102376.03
2022-10-18T13:24:05.789Z,102368.25
2022-10-18T13:29:09.387Z,102352.78
2022-10-18T13:34:24.759Z,102346.22
2022-10-18T13:39:21.561Z,102341.47
2022-10-18T13:44:28.246Z,102341.47
2022-10-18T13:49:31.186Z,102327.31
2022-10-18T13:54:49.986Z,102321.69
2022-10-18T14:00:03.457Z,102319.28
2022-10-18T14:05:29.103Z,102296.63
2022-10-18T14:10:43.784Z,102293.38
2022-10-18T14:15:50.813Z,102293.66
2022-10-18T14:21:12.340Z,102275.78
2022-10-18T14:26:10.538Z,102271.91
2022-10-18T14:31:12.719Z,102264.22
2022-10-18T14:36:14.660Z,102257.84
2022-10-18T14:41:17.746Z,102251.00
2022-10-18T14:46:19.906Z,102254.78
2022-10-18T14:51:16.711Z,102245.31
2022-10-18T14:56:20.277Z,102236.28
2022-10-18T15:01:17.979Z,102229.03
2022-10-18T15:06:17.518Z,102229.13
2022-10-18T15:11:17.101Z,102218.25
2022-10-18T15:16:18.301Z,102202.63
2022-10-18T15:21:21.110Z,102212.88
2022-10-18T15:26:21.508Z,102213.59
2022-10-18T15:31:25.800Z,102194.47
2022-10-18T15:36:26.427Z,102208.06
2022-10-18T15:41:39.089Z,102206.25
2022-10-18T15:46:38.729Z,102202.88
2022-10-18T15:51:46.654Z,102199.44
2022-10-18T15:56:46.471Z,102203.94
2022-10-18T16:01:46.077Z,102200.72
2022-10-18T16:06:43.667Z,102207.00
2022-10-18T16:11:41.269Z,102215.19
2022-10-18T16:16:40.751Z,102211.81
2022-10-18T16:21:38.471Z,102195.22
2022-10-18T16:26:36.297Z,102205.13
2022-10-18T16:31:34.027Z,102198.66
2022-10-18T16:36:31.425Z,102200.56
2022-10-18T16:41:28.592Z,102201.78
2022-10-18T16:46:26.794Z,102185.91
2022-10-18T16:51:23.509Z,102192.41
2022-10-18T16:56:21.836Z,102194.97
2022-10-18T17:01:19.357Z,102193.00
2022-10-18T17:06:17.872Z,102189.56
2022-10-18T17:11:18.661Z,102190.84
2022-10-18T17:16:21.014Z,102172.81
2022-10-18T17:21:20.637Z,102189.19
2022-10-18T17:26:28.311Z,102186.19
2022-10-18T17:31:25.872Z,102180.31
2022-10-18T17:36:25.066Z,102181.44
2022-10-18T17:41:21.809Z,102183.91
2022-10-18T17:46:19.085Z,102176.25
2022-10-18T17:51:17.416Z,102183.56
2022-10-18T17:56:15.363Z,102166.56
2022-10-18T18:01:13.725Z,102163.09
2022-10-18T18:06:14.469Z,102151.16
2022-10-18T18:11:11.269Z,102143.34
2022-10-18T18:16:13.251Z,102137.84
2022-10-18T18:21:10.065Z,102128.94
2022-10-18T18:26:07.083Z,102124.47
2022-10-18T18:31:07.208Z,102126.41
2022-10-18T18:36:06.136Z,102121.53
2022-10-18T18:41:06.577Z,102118.41
2022-10-18T18:46:03.689Z,102108.56
2022-10-18T18:51:00.488Z,102106.16
2022-10-18T18:56:04.977Z,102100.13
2022-10-18T19:01:05.289Z,102103.69
2022-10-18T19:06:02.582Z,102099.34
2022-10-18T19:10:59.397Z,102101.16
2022-10-18T19:16:10.634Z,102093.00
2022-10-18T19:21:09.699Z,102088.63
2022-10-18T19:26:12.022Z,102084.94
2022-10-18T19:31:09.831Z,102080.88
2022-10-18T19:36:08.113Z,102075.88
2022-10-18T19:41:04.884Z,102063.63
2022-10-18T19:46:01.931Z,102070.69
2022-10-18T19:51:03.473Z,102065.09
2022-10-18T19:56:01.651Z,102064.13
2022-10-18T20:00:59.576Z,102059.19
2022-10-18T20:05:56.438Z,102049.47
2022-10-18T20:10:53.169Z,102048.72
2022-10-18T20:15:51.663Z,102044.50
2022-10-18T20:20:48.837Z,102038.84
2022-10-18T20:25:55.263Z,102024.38
2022-10-18T20:31:04.123Z,102030.75
2022-10-18T20:36:04.487Z,102016.44
2022-10-18T20:41:05.121Z,102016.03
2022-10-18T20:46:02.967Z,102006.72
2022-10-18T20:51:02.620Z,101999.19
2022-10-18T20:56:03.391Z,101994.28
2022-10-18T21:01:07.700Z,101978.00
2022-10-18T21:06:08.272Z,101990.00
2022-10-18T21:11:05.235Z,101981.53
2022-10-18T21:16:02.353Z,101971.28
2022-10-18T21:21:07.667Z,101959.84
2022-10-18T21:26:04.520Z,101947.19
2022-10-18T21:31:07.988Z,101945.19
2022-10-18T21:36:04.896Z,101938.31
2022-10-18T21:41:07.120Z,101928.81
2022-10-18T21:46:03.742Z,101919.78
2022-10-18T21:51:02.040Z,101915.81
2022-10-18T21:56:04.566Z,101906.84
2022-10-18T22:01:01.421Z,101904.13
2022-10-18T22:06:00.642Z,101891.50
2022-10-18T22:10:57.696Z,101889.53
2022-10-18T22:15:59.796Z,101886.53
2022-10-18T22:21:00.049Z,101868.81
2022-10-18T22:25:56.567Z,101859.16
2022-10-18T22:30:53.291Z,101857.25
2022-10-18T22:35:50.804Z,101844.59
2022-10-18T22:40:49.615Z,101839.38
2022-10-18T22:45:46.324Z,101851.09
2022-10-18T22:50:43.016Z,101840.78
2022-10-18T22:55:43.981Z,101830.53
2022-10-18T23:00:40.678Z,101837.97
2022-10-18T23:05:37.855Z,101827.56
2022-10-18T23:10:36.299Z,101827.03
2022-10-18T23:15:33.606Z,101824.50
2022-10-18T23:20:30.660Z,101826.28
2022-10-18T23:25:27.908Z,101823.03
2022-10-18T23:30:24.465Z,101814.19
2022-10-18T23:35:22.029Z,101813.84
2022-10-18T23:40:18.634Z,101812.75
2022-10-18T23:45:15.262Z,101803.84
2022-10-18T23:50:11.912Z,101795.19
2022-10-18T23:55:09.387Z,101789.28
